createdAt,value
2018-02-10T00:01:59.317Z,34.23
2018-02-10T00:04:26.786Z,33.50
2018-02-10T00:06:54.256Z,32.67
2018-02-10T00:09:21.705Z,35.53
2018-02-10T00:11:49.169Z,36.27
2018-02-10T00:14:16.617Z,37.23
2018-02-10T00:16:44.077Z,34.27
2018-02-10T00:19:11.531Z,31.90
2018-02-10T00:21:39.013Z,35.93
2018-02-10T00:24:06.463Z,36.57
2018-02-10T00:26:33.925Z,36.47
2018-02-10T00:29:01.390Z,34.50
2018-02-10T00:31:28.857Z,34.10
2018-02-10T00:33:57.068Z,34.43
2018-02-10T00:36:24.533Z,35.80
2018-02-10T00:38:51.986Z,35.87
2018-02-10T00:41:19.440Z,35.70
2018-02-10T00:43:46.893Z,34.63
2018-02-10T00:46:14.404Z,33.60
2018-02-10T00:48:41.804Z,36.20
2018-02-10T00:51:09.261Z,34.70
2018-02-10T00:53:36.722Z,34.63
2018-02-10T00:56:04.182Z,34.80
2018-02-10T00:58:31.679Z,35.40
2018-02-10T01:00:59.105Z,33.90
2018-02-10T01:03:26.557Z,35.40
2018-02-10T01:05:54.008Z,34.93
2018-02-10T01:08:21.464Z,37.33
2018-02-10T01:10:48.921Z,33.83
2018-02-10T01:13:16.381Z,36.70
2018-02-10T01:15:43.836Z,36.00
2018-02-10T01:18:11.292Z,33.50
2018-02-10T01:20:38.758Z,33.07
2018-02-10T01:23:06.212Z,36.40
2018-02-10T01:25:34.432Z,34.47
2018-02-10T01:28:02.658Z,37.10
2018-02-10T01:30:30.110Z,36.87
2018-02-10T01:32:57.569Z,33.87
2018-02-10T01:35:25.025Z,34.40
2018-02-10T01:37:52.493Z,35.37
2018-02-10T01:40:19.950Z,34.90
2018-02-10T01:42:47.407Z,34.87
2018-02-10T01:45:14.852Z,36.30
2018-02-10T01:47:42.322Z,33.37
2018-02-10T01:50:21.628Z,36.03
2018-02-10T01:52:49.089Z,36.00
2018-02-10T01:55:16.546Z,35.33
2018-02-10T01:57:44.001Z,35.63
2018-02-10T02:00:11.456Z,35.50
2018-02-10T02:02:38.921Z,34.97
2018-02-10T02:05:06.375Z,35.60
2018-02-10T02:07:33.837Z,31.60
2018-02-10T02:10:01.284Z,37.13
2018-02-10T02:12:28.758Z,35.07
2018-02-10T02:14:56.196Z,36.00
2018-02-10T02:17:23.656Z,33.43
2018-02-10T02:19:51.109Z,35.80
2018-02-10T02:22:18.568Z,33.53
2018-02-10T02:24:46.027Z,31.87
2018-02-10T02:27:13.487Z,34.63
2018-02-10T02:29:40.942Z,35.70
2018-02-10T02:32:08.396Z,36.37
2018-02-10T02:34:35.848Z,35.77
2018-02-10T02:37:03.311Z,34.10
2018-02-10T02:39:30.771Z,36.10
2018-02-10T02:41:58.223Z,33.70
2018-02-10T02:44:25.686Z,33.47
2018-02-10T02:46:53.138Z,32.90
2018-02-10T02:49:20.597Z,33.90
2018-02-10T02:51:48.050Z,32.80
2018-02-10T02:54:15.509Z,34.67
2018-02-10T02:56:42.961Z,33.00
2018-02-10T02:59:10.421Z,33.03
2018-02-10T03:01:37.873Z,32.13
2018-02-10T03:04:05.328Z,30.33
2018-02-10T03:06:32.793Z,32.37
2018-02-10T03:09:00.255Z,33.43
2018-02-10T03:11:27.714Z,31.93
2018-02-10T03:13:55.169Z,35.63
2018-02-10T03:16:22.656Z,34.60
2018-02-10T03:18:50.093Z,34.70
2018-02-10T03:21:17.552Z,35.50
2018-02-10T03:23:45.013Z,33.73
2018-02-10T03:26:12.478Z,33.00
2018-02-10T03:28:39.939Z,32.57
2018-02-10T03:31:07.456Z,34.07
2018-02-10T03:33:34.897Z,34.30
2018-02-10T03:36:02.357Z,33.70
2018-02-10T03:38:29.804Z,36.00
2018-02-10T03:40:57.261Z,36.03
2018-02-10T03:43:24.714Z,33.63
2018-02-10T03:45:52.937Z,35.27
2018-02-10T03:48:20.388Z,34.23
2018-02-10T03:50:47.849Z,35.40
2018-02-10T03:53:15.305Z,37.27
2018-02-10T03:55:42.777Z,33.83
2018-02-10T03:58:10.240Z,34.87
2018-02-10T04:00:37.701Z,33.40
2018-02-10T04:03:05.153Z,33.10
2018-02-10T04:05:32.609Z,34.40
2018-02-10T04:08:00.063Z,31.77
2018-02-10T04:10:27.520Z,31.60
2018-02-10T04:12:54.973Z,35.00
2018-02-10T04:15:22.439Z,33.03
2018-02-10T04:17:49.885Z,33.57
2018-02-10T04:20:17.345Z,33.40
2018-02-10T04:22:44.796Z,34.40
2018-02-10T04:25:12.249Z,34.27
2018-02-10T04:27:39.710Z,35.20
2018-02-10T04:30:07.171Z,31.83
2018-02-10T04:32:34.624Z,33.87
2018-02-10T04:35:02.073Z,33.20
2018-02-10T04:37:29.538Z,32.73
2018-02-10T04:39:56.989Z,32.57
2018-02-10T04:42:24.448Z,35.23
2018-02-10T04:44:51.911Z,31.50
2018-02-10T04:47:19.370Z,31.30
2018-02-10T04:49:46.831Z,35.57
2018-02-10T04:52:14.294Z,35.30
2018-02-10T04:54:41.741Z,32.07
2018-02-10T04:57:09.202Z,34.10
2018-02-10T04:59:36.653Z,33.17
2018-02-10T05:02:04.114Z,30.60
2018-02-10T05:04:31.565Z,30.53
2018-02-10T05:06:59.033Z,33.07
2018-02-10T05:09:26.482Z,30.97
2018-02-10T05:11:53.947Z,31.60
2018-02-10T05:14:21.396Z,32.40
2018-02-10T05:16:48.854Z,31.03
2018-02-10T05:19:16.313Z,30.70
2018-02-10T05:21:43.777Z,29.83
2018-02-10T05:24:11.994Z,31.83
2018-02-10T05:26:39.460Z,32.40
2018-02-10T05:29:06.905Z,30.80
2018-02-10T05:31:34.413Z,31.30
2018-02-10T05:34:01.865Z,33.13
2018-02-10T05:36:29.320Z,31.83
2018-02-10T05:38:56.777Z,29.30
2018-02-10T05:41:24.238Z,33.23
2018-02-10T05:43:51.697Z,31.23
2018-02-10T05:46:19.149Z,30.27
2018-02-10T05:48:46.612Z,33.47
2018-02-10T05:51:14.065Z,30.67
2018-02-10T05:53:41.526Z,32.13
2018-02-10T05:56:08.986Z,31.13
2018-02-10T05:58:36.447Z,33.80
2018-02-10T06:01:04.661Z,31.63
2018-02-10T06:03:32.159Z,30.50
2018-02-10T06:05:59.585Z,31.03
2018-02-10T06:08:27.054Z,31.77
2018-02-10T06:10:54.509Z,31.70
2018-02-10T06:13:21.970Z,30.70
2018-02-10T06:15:49.422Z,29.47
2018-02-10T06:18:17.648Z,28.53
2018-02-10T06:20:45.102Z,27.87
2018-02-10T06:23:13.329Z,29.83
2018-02-10T06:25:40.784Z,29.17
2018-02-10T06:28:08.248Z,29.10
2018-02-10T06:30:35.697Z,31.07
2018-02-10T06:33:03.155Z,27.77
2018-02-10T06:35:30.604Z,31.57
2018-02-10T06:37:58.070Z,30.63
2018-02-10T06:40:25.539Z,32.40
2018-02-10T06:42:52.980Z,27.03
2018-02-10T06:45:20.438Z,30.60
2018-02-10T06:47:47.902Z,31.17
2018-02-10T06:50:15.349Z,28.10
2018-02-10T06:52:42.829Z,29.93
2018-02-10T06:55:10.276Z,31.17
2018-02-10T06:57:37.729Z,26.63
2018-02-10T07:00:05.188Z,27.77
2018-02-10T07:02:32.708Z,30.30
2018-02-10T07:05:00.166Z,29.07
2018-02-10T07:07:27.613Z,31.20
2018-02-10T07:09:55.083Z,31.90
2018-02-10T07:12:22.537Z,33.67
2018-02-10T07:14:49.992Z,31.40
2018-02-10T07:17:17.450Z,30.43
2018-02-10T07:19:44.912Z,30.17
2018-02-10T07:22:12.361Z,30.70
2018-02-10T07:24:39.826Z,29.47
2018-02-10T07:27:07.280Z,30.67
2018-02-10T07:29:34.746Z,30.57
2018-02-10T07:32:02.198Z,29.13
2018-02-10T07:34:29.667Z,30.17
2018-02-10T07:36:57.113Z,33.80
2018-02-10T07:39:24.565Z,28.70
2018-02-10T07:44:26.748Z,30.43
2018-02-10T07:46:54.202Z,31.57
2018-02-10T07:49:21.689Z,33.80
2018-02-10T07:51:49.189Z,31.53
2018-02-10T07:54:17.429Z,35.60
2018-02-10T07:56:44.881Z,34.60
2018-02-10T07:59:12.349Z,35.80
2018-02-10T08:01:39.805Z,35.87
2018-02-10T08:04:07.261Z,35.17
2018-02-10T08:06:34.721Z,38.27
2018-02-10T08:09:02.174Z,33.60
2018-02-10T08:11:29.633Z,35.80
2018-02-10T08:13:57.085Z,37.13
2018-02-10T08:16:24.549Z,36.93
2018-02-10T08:18:51.996Z,34.90
2018-02-10T08:21:19.461Z,39.80
2018-02-10T08:23:46.917Z,39.63
2018-02-10T08:26:14.373Z,36.00
2018-02-10T08:28:41.825Z,38.80
2018-02-10T08:31:09.284Z,37.63
2018-02-10T08:33:36.732Z,38.10
2018-02-10T08:36:04.215Z,38.50
2018-02-10T08:38:31.652Z,38.30
2018-02-10T08:40:59.108Z,39.60
2018-02-10T08:43:26.581Z,40.30
2018-02-10T08:45:54.812Z,40.90
2018-02-10T08:48:22.264Z,36.97
2018-02-10T08:50:49.727Z,39.40
2018-02-10T08:53:17.176Z,36.30
2018-02-10T08:55:44.648Z,36.50
2018-02-10T08:58:12.102Z,38.20
2018-02-10T09:00:39.562Z,39.10
2018-02-10T09:03:07.021Z,38.87
2018-02-10T09:05:34.497Z,37.67
2018-02-10T09:08:01.953Z,42.53
2018-02-10T09:10:29.404Z,38.33
2018-02-10T09:12:56.863Z,35.10
2018-02-10T09:15:24.373Z,39.20
2018-02-10T09:17:51.870Z,39.07
2018-02-10T09:20:19.277Z,40.70
2018-02-10T09:22:46.732Z,41.07
2018-02-10T09:25:14.190Z,36.17
2018-02-10T09:27:41.661Z,36.33
2018-02-10T09:30:09.112Z,37.13
2018-02-10T09:32:36.575Z,37.27
2018-02-10T09:35:04.025Z,36.63
2018-02-10T09:37:31.489Z,34.70
2018-02-10T09:39:58.952Z,37.57
2018-02-10T09:42:26.418Z,36.77
2018-02-10T09:44:53.868Z,35.73
2018-02-10T09:47:21.325Z,34.87
2018-02-10T09:49:48.783Z,36.37
2018-02-10T09:52:16.245Z,34.40
2018-02-10T09:54:43.704Z,35.93
2018-02-10T09:57:11.169Z,33.53
2018-02-10T09:59:38.634Z,33.93
2018-02-10T10:02:06.092Z,34.77
2018-02-10T10:04:33.547Z,33.47
2018-02-10T10:07:01.005Z,34.10
2018-02-10T10:09:28.466Z,34.43
2018-02-10T10:11:55.929Z,32.67
2018-02-10T10:14:23.431Z,34.30
2018-02-10T10:16:50.874Z,31.97
2018-02-10T10:19:18.337Z,32.53
2018-02-10T10:21:45.790Z,30.20
2018-02-10T10:24:13.248Z,28.60
2018-02-10T10:26:40.709Z,28.20
2018-02-10T10:29:08.176Z,27.97
2018-02-10T10:31:35.634Z,27.20
2018-02-10T10:34:03.096Z,29.43
2018-02-10T10:36:30.556Z,26.83
2018-02-10T10:38:58.017Z,29.03
2018-02-10T10:41:25.481Z,31.33
2018-02-10T10:43:52.937Z,29.47
2018-02-10T10:46:20.423Z,27.77
2018-02-10T10:48:47.928Z,27.77
2018-02-10T10:51:15.387Z,25.90
2018-02-10T10:53:42.846Z,27.33
2018-02-10T10:56:10.307Z,27.43
2018-02-10T10:58:37.765Z,27.40
2018-02-10T11:01:05.217Z,28.53
2018-02-10T11:03:32.694Z,28.97
2018-02-10T11:06:00.144Z,25.90
2018-02-10T11:08:27.624Z,27.60
2018-02-10T11:10:55.077Z,26.07
2018-02-10T11:13:22.537Z,26.70
2018-02-10T11:15:50.128Z,27.73
2018-02-10T11:18:18.355Z,26.90
2018-02-10T11:20:45.813Z,26.40
2018-02-10T11:23:13.281Z,28.40
2018-02-10T11:25:40.740Z,25.83
2018-02-10T11:28:08.220Z,28.70
2018-02-10T11:30:36.441Z,24.50
2018-02-10T11:33:03.897Z,27.60
2018-02-10T11:35:31.358Z,28.57
2018-02-10T11:37:58.822Z,28.13
2018-02-10T11:40:26.277Z,29.10
2018-02-10T11:42:53.742Z,27.80
2018-02-10T11:45:21.969Z,27.63
2018-02-10T11:47:49.433Z,28.23
2018-02-10T11:50:16.908Z,26.17
2018-02-10T11:52:44.369Z,26.40
2018-02-10T11:55:11.837Z,26.53
2018-02-10T11:57:39.293Z,25.87
2018-02-10T12:00:06.761Z,23.10
2018-02-10T12:02:34.988Z,22.90
2018-02-10T12:05:02.445Z,24.03
2018-02-10T12:07:29.901Z,22.10
2018-02-10T12:09:57.368Z,23.23
2018-02-10T12:12:24.817Z,20.63
2018-02-10T12:14:52.292Z,22.30
2018-02-10T12:17:19.742Z,22.13
2018-02-10T12:19:47.206Z,22.97
2018-02-10T12:22:14.665Z,20.40
2018-02-10T12:24:42.141Z,21.30
2018-02-10T12:27:09.594Z,18.50
2018-02-10T12:29:37.062Z,18.80
2018-02-10T12:32:04.526Z,19.03
2018-02-10T12:34:31.977Z,18.23
2018-02-10T12:36:59.432Z,17.47
2018-02-10T12:39:26.897Z,19.40
2018-02-10T12:41:55.445Z,19.70
2018-02-10T12:44:22.917Z,18.50
2018-02-10T12:46:51.363Z,18.43
2018-02-10T12:49:25.517Z,18.10
2018-02-10T12:51:52.966Z,17.77
2018-02-10T12:54:20.417Z,17.07
2018-02-10T12:56:47.884Z,18.10
2018-02-10T12:59:15.345Z,19.03
2018-02-10T13:01:42.809Z,19.60
2018-02-10T13:04:10.282Z,17.83
2018-02-10T13:06:37.732Z,17.73
2018-02-10T13:09:05.185Z,19.67
2018-02-10T13:11:32.649Z,18.97
2018-02-10T13:14:00.101Z,17.50
2018-02-10T13:16:27.823Z,17.03
2018-02-10T13:18:55.272Z,18.30
2018-02-10T13:21:22.742Z,16.37
2018-02-10T13:23:50.442Z,15.60
2018-02-10T13:26:18.093Z,15.00
2018-02-10T13:28:45.557Z,15.37
2018-02-10T13:31:13.021Z,15.67
2018-02-10T13:33:40.470Z,14.23
2018-02-10T13:36:07.934Z,12.43
2018-02-10T13:38:35.382Z,13.13
2018-02-10T13:41:04.461Z,11.63
2018-02-10T13:43:31.912Z,12.33
2018-02-10T13:45:59.369Z,12.30
2018-02-10T13:48:37.727Z,12.40
2018-02-10T13:51:08.138Z,14.83
2018-02-10T13:53:35.965Z,17.47
2018-02-10T13:56:03.414Z,15.53
2018-02-10T13:58:30.882Z,15.90
2018-02-10T14:00:58.337Z,16.70
2018-02-10T14:03:25.801Z,16.20
2018-02-10T14:05:53.257Z,16.10
2018-02-10T14:08:28.330Z,17.37
2018-02-10T14:10:56.544Z,16.90
2018-02-10T14:13:24.013Z,17.10
2018-02-10T14:15:51.481Z,17.57
2018-02-10T14:18:18.978Z,16.43
2018-02-10T14:20:46.400Z,16.20
2018-02-10T14:23:13.873Z,18.93
2018-02-10T14:25:41.337Z,20.80
2018-02-10T14:28:09.564Z,20.70
2018-02-10T14:30:37.036Z,19.40
2018-02-10T14:33:04.489Z,21.50
2018-02-10T14:35:31.949Z,21.20
2018-02-10T14:37:59.409Z,23.50
2018-02-10T14:40:26.866Z,21.33
2018-02-10T14:42:54.336Z,23.53
2018-02-10T14:45:21.800Z,21.47
2018-02-10T14:47:49.261Z,21.30
2018-02-10T14:50:17.480Z,23.27
2018-02-10T14:52:44.941Z,20.90
2018-02-10T14:55:12.394Z,21.33
2018-02-10T14:57:39.861Z,20.63
2018-02-10T15:00:07.317Z,20.30
2018-02-10T15:02:34.776Z,20.73
2018-02-10T15:05:02.229Z,19.50
2018-02-10T15:07:29.693Z,19.40
2018-02-10T15:09:57.152Z,19.80
2018-02-10T15:12:24.627Z,20.17
2018-02-10T15:14:52.083Z,18.43
2018-02-10T15:17:19.530Z,20.57
2018-02-10T15:19:47.970Z,18.73
2018-02-10T15:22:15.424Z,19.03
2018-02-10T15:24:42.880Z,18.03
2018-02-10T15:27:10.337Z,17.73
2018-02-10T15:29:49.809Z,16.63
2018-02-10T15:32:29.317Z,17.13
2018-02-10T15:34:58.733Z,17.77
2018-02-10T15:37:26.194Z,17.63
2018-02-10T15:39:53.654Z,18.00
2018-02-10T15:42:21.109Z,18.50
2018-02-10T15:44:48.564Z,16.57
2018-02-10T15:47:16.133Z,19.00
2018-02-10T15:49:43.578Z,19.90
2018-02-10T15:52:11.034Z,18.73
2018-02-10T15:54:38.494Z,17.43
2018-02-10T15:57:05.957Z,18.70
2018-02-10T15:59:33.417Z,17.40
2018-02-10T16:02:00.869Z,20.27
2018-02-10T16:04:28.341Z,25.70
2018-02-10T16:06:55.802Z,22.13
2018-02-10T16:09:23.269Z,19.57
2018-02-10T16:11:50.729Z,19.83
2018-02-10T16:14:18.198Z,18.87
2018-02-10T16:16:45.649Z,18.87
2018-02-10T16:19:13.102Z,20.33
2018-02-10T16:21:40.554Z,20.20
2018-02-10T16:24:08.021Z,19.60
2018-02-10T16:26:35.470Z,19.90
2018-02-10T16:29:02.938Z,19.10
2018-02-10T16:31:31.157Z,20.17
2018-02-10T16:33:58.629Z,19.90
2018-02-10T16:36:26.088Z,22.67
2018-02-10T16:38:53.549Z,21.67
2018-02-10T16:41:21.009Z,21.83
2018-02-10T16:43:49.445Z,21.93
2018-02-10T16:46:16.902Z,21.40
2018-02-10T16:48:44.360Z,20.00
2018-02-10T16:51:11.813Z,19.50
2018-02-10T16:53:39.261Z,19.77
2018-02-10T16:56:07.489Z,20.13
2018-02-10T16:58:34.939Z,19.87
2018-02-10T17:01:02.401Z,19.07
2018-02-10T17:03:29.859Z,20.30
2018-02-10T17:05:57.329Z,19.47
2018-02-10T17:08:24.789Z,20.07
2018-02-10T17:10:52.257Z,20.57
2018-02-10T17:13:19.708Z,20.60
2018-02-10T17:15:47.169Z,20.97
2018-02-10T17:18:15.541Z,19.77
2018-02-10T17:20:43.003Z,21.13
2018-02-10T17:23:10.453Z,21.50
2018-02-10T17:25:37.912Z,20.53
2018-02-10T17:28:05.365Z,20.30
2018-02-10T17:30:32.829Z,21.10
2018-02-10T17:33:00.277Z,23.93
2018-02-10T17:35:27.786Z,25.43
2018-02-10T17:37:55.237Z,23.77
2018-02-10T17:40:22.705Z,22.00
2018-02-10T17:42:50.165Z,19.97
2018-02-10T17:45:17.617Z,20.40
2018-02-10T17:47:45.083Z,20.00
2018-02-10T17:50:12.534Z,22.47
2018-02-10T17:52:39.996Z,20.40
2018-02-10T17:55:07.449Z,18.03
2018-02-10T17:57:34.913Z,27.17
2018-02-10T18:00:02.369Z,21.77
2018-02-10T18:02:29.840Z,26.20
2018-02-10T18:04:57.290Z,20.67
2018-02-10T18:07:24.761Z,23.60
2018-02-10T18:09:52.219Z,20.80
2018-02-10T18:12:19.680Z,19.93
2018-02-10T18:14:47.138Z,19.17
2018-02-10T18:17:14.602Z,20.00
2018-02-10T18:19:42.053Z,19.20
2018-02-10T18:22:09.509Z,19.53
2018-02-10T18:24:36.962Z,19.33
2018-02-10T18:27:04.421Z,19.23
2018-02-10T18:29:31.874Z,20.33
2018-02-10T18:31:59.334Z,37.23
2018-02-10T18:34:26.793Z,25.60
2018-02-10T18:36:54.260Z,22.17
2018-02-10T18:39:22.488Z,23.50
2018-02-10T18:41:49.945Z,20.87
2018-02-10T18:44:17.402Z,21.20
2018-02-10T18:46:44.873Z,19.67
2018-02-10T18:49:12.373Z,19.47
2018-02-10T18:51:40.598Z,20.40
2018-02-10T18:54:08.054Z,18.47
2018-02-10T18:56:35.553Z,21.90
2018-02-10T18:59:02.977Z,20.97
2018-02-10T19:01:30.436Z,20.47
2018-02-10T19:03:57.885Z,19.80
2018-02-10T19:06:25.358Z,18.93
2018-02-10T19:08:52.859Z,19.70
2018-02-10T19:11:20.282Z,19.10
2018-02-10T19:13:47.741Z,18.80
2018-02-10T19:16:15.195Z,17.60
2018-02-10T19:18:42.654Z,16.97
2018-02-10T19:21:10.114Z,17.83
2018-02-10T19:23:37.574Z,18.60
2018-02-10T19:26:05.029Z,18.50
2018-02-10T19:28:32.498Z,17.67
2018-02-10T19:31:00.719Z,16.60
2018-02-10T19:33:28.176Z,19.00
2018-02-10T19:35:55.633Z,18.73
2018-02-10T19:38:23.101Z,17.10
2018-02-10T19:40:50.558Z,18.43
2018-02-10T19:43:18.018Z,17.33
2018-02-10T19:45:45.471Z,18.90
2018-02-10T19:48:12.933Z,18.90
2018-02-10T19:50:40.389Z,18.30
2018-02-10T19:53:07.849Z,16.33
2018-02-10T19:55:35.305Z,18.50
2018-02-10T19:58:02.773Z,16.23
2018-02-10T20:00:30.221Z,16.93
2018-02-10T20:02:57.685Z,17.87
2018-02-10T20:05:25.202Z,15.70
2018-02-10T20:07:52.614Z,17.10
2018-02-10T20:10:20.835Z,16.50
2018-02-10T20:12:48.308Z,17.27
2018-02-10T20:15:15.762Z,17.30
2018-02-10T20:17:43.230Z,16.67
2018-02-10T20:20:10.684Z,16.00
2018-02-10T20:22:38.138Z,13.87
2018-02-10T20:25:05.597Z,15.27
2018-02-10T20:27:33.052Z,13.93
2018-02-10T20:30:00.524Z,13.83
2018-02-10T20:32:27.999Z,15.00
2018-02-10T20:34:56.223Z,14.50
2018-02-10T20:37:23.678Z,14.20
2018-02-10T20:39:51.133Z,14.17
2018-02-10T20:42:18.595Z,12.07
2018-02-10T20:44:46.054Z,11.97
2018-02-10T20:47:13.517Z,12.17
2018-02-10T20:49:40.977Z,13.03
2018-02-10T20:52:08.434Z,12.13
2018-02-10T20:54:35.897Z,12.13
2018-02-10T20:57:03.349Z,11.07
2018-02-10T20:59:30.814Z,11.73
2018-02-10T21:01:58.269Z,12.73
2018-02-10T21:04:25.737Z,11.13
2018-02-10T21:06:53.180Z,9.80
2018-02-10T21:09:20.640Z,10.70
2018-02-10T21:11:48.096Z,10.60
2018-02-10T21:14:15.562Z,10.30
2018-02-10T21:16:43.011Z,8.87
2018-02-10T21:19:10.471Z,9.47
2018-02-10T21:21:37.920Z,9.93
2018-02-10T21:24:05.394Z,9.20
2018-02-10T21:26:32.849Z,10.13
2018-02-10T21:29:00.305Z,11.83
2018-02-10T21:31:27.792Z,10.80
2018-02-10T21:33:56.004Z,8.77
2018-02-10T21:36:23.465Z,9.50
2018-02-10T21:38:50.929Z,8.80
2018-02-10T21:41:19.157Z,10.03
2018-02-10T21:43:46.620Z,8.63
2018-02-10T21:46:14.070Z,10.40
2018-02-10T21:48:41.521Z,9.33
2018-02-10T21:51:08.981Z,8.40
2018-02-10T21:53:36.432Z,8.30
2018-02-10T21:56:04.660Z,8.90
2018-02-10T21:58:32.109Z,9.17
2018-02-10T22:00:59.566Z,8.80
2018-02-10T22:03:27.015Z,8.30
2018-02-10T22:05:54.478Z,9.60
2018-02-10T22:08:21.924Z,8.47
2018-02-10T22:10:49.376Z,7.77
2018-02-10T22:13:16.827Z,7.67
2018-02-10T22:15:44.287Z,9.00
2018-02-10T22:18:11.730Z,7.17
2018-02-10T22:20:39.185Z,8.70
2018-02-10T22:23:06.630Z,8.90
2018-02-10T22:25:34.086Z,8.50
2018-02-10T22:28:02.307Z,7.60
2018-02-10T22:30:29.750Z,8.03
2018-02-10T22:32:57.222Z,8.50
2018-02-10T22:35:24.658Z,8.77
2018-02-10T22:37:52.113Z,8.30
2018-02-10T22:40:19.562Z,9.00
2018-02-10T22:42:47.019Z,8.00
2018-02-10T22:45:14.470Z,9.17
2018-02-10T22:47:41.924Z,8.63
2018-02-10T22:50:09.368Z,7.53
2018-02-10T22:52:37.593Z,9.73
2018-02-10T22:55:05.045Z,8.70
2018-02-10T22:57:32.539Z,8.13
2018-02-10T22:59:59.986Z,8.30
2018-02-10T23:02:27.441Z,8.27
2018-02-10T23:04:54.888Z,9.17
2018-02-10T23:07:22.377Z,8.47
2018-02-10T23:09:50.596Z,8.57
2018-02-10T23:12:18.057Z,7.73
2018-02-10T23:14:45.497Z,8.57
2018-02-10T23:17:13.508Z,8.17
2018-02-10T23:19:40.953Z,8.87
2018-02-10T23:22:08.404Z,9.63
2018-02-10T23:24:35.901Z,8.60
2018-02-10T23:27:04.118Z,8.70
2018-02-10T23:29:31.564Z,9.00
2018-02-10T23:31:59.049Z,8.20
2018-02-10T23:34:26.509Z,8.43
2018-02-10T23:36:53.964Z,8.47
2018-02-10T23:39:22.194Z,8.27
2018-02-10T23:41:49.653Z,9.00
2018-02-10T23:44:17.100Z,8.17
2018-02-10T23:46:45.323Z,8.40
2018-02-10T23:49:12.774Z,10.00
2018-02-10T23:51:40.241Z,8.70
2018-02-10T23:54:07.692Z,9.77
2018-02-10T23:56:35.149Z,7.93
2018-02-10T23:59:02.605Z,8.63
